createdAt,value
2019-05-02T00:02:03.460Z,9.60
2019-05-02T00:04:33.335Z,9.50
2019-05-02T00:07:06.756Z,9.40
2019-05-02T00:09:37.430Z,9.40
2019-05-02T00:12:11.818Z,9.30
2019-05-02T00:14:42.683Z,9.10
2019-05-02T00:17:13.101Z,9.10
2019-05-02T00:19:49.401Z,9.10
2019-05-02T00:22:17.474Z,9.00
2019-05-02T00:24:48.535Z,9.00
2019-05-02T00:27:18.555Z,8.90
2019-05-02T00:29:48.562Z,8.80
2019-05-02T00:32:22.489Z,8.80
2019-05-02T00:34:50.653Z,8.70
2019-05-02T00:37:24.716Z,8.60
2019-05-02T00:39:52.547Z,8.50
2019-05-02T00:42:23.961Z,8.50
2019-05-02T00:44:54.332Z,8.40
2019-05-02T00:47:34.842Z,8.40
2019-05-02T00:50:11.396Z,8.40
2019-05-02T00:52:39.378Z,8.40
2019-05-02T00:55:11.186Z,8.40
2019-05-02T00:57:41.352Z,8.40
2019-05-02T01:00:13.401Z,8.30
2019-05-02T01:02:47.784Z,8.30
2019-05-02T01:05:17.786Z,8.40
2019-05-02T01:07:47.741Z,8.40
2019-05-02T01:10:21.302Z,8.40
2019-05-02T01:12:49.915Z,8.40
2019-05-02T01:15:20.380Z,8.40
2019-05-02T01:17:50.607Z,8.40
2019-05-02T01:20:25.666Z,8.50
2019-05-02T01:22:53.671Z,8.40
2019-05-02T01:25:23.811Z,8.40
2019-05-02T01:28:12.658Z,8.40
2019-05-02T01:30:43.940Z,8.40
2019-05-02T01:33:18.482Z,8.40
2019-05-02T01:35:55.821Z,8.30
2019-05-02T01:38:33.788Z,8.30
2019-05-02T01:41:03.788Z,8.30
2019-05-02T01:43:33.985Z,8.40
2019-05-02T01:46:04.661Z,8.40
2019-05-02T01:48:34.604Z,8.40
2019-05-02T01:51:10.201Z,8.40
2019-05-02T01:53:36.702Z,8.50
2019-05-02T01:56:06.954Z,8.50
2019-05-02T01:58:36.762Z,8.50
2019-05-02T02:01:07.072Z,8.60
2019-05-02T02:03:40.432Z,8.60
2019-05-02T02:06:10.141Z,8.60
2019-05-02T02:08:40.330Z,8.60
2019-05-02T02:11:10.266Z,8.60
2019-05-02T02:13:40.497Z,8.50
2019-05-02T02:16:10.685Z,8.40
2019-05-02T02:18:45.355Z,8.30
2019-05-02T02:21:20.248Z,8.20
2019-05-02T02:23:53.390Z,8.20
2019-05-02T02:26:25.270Z,8.20
2019-05-02T02:28:55.529Z,8.00
2019-05-02T02:31:25.528Z,7.90
2019-05-02T02:33:55.623Z,7.90
2019-05-02T02:36:31.519Z,7.80
2019-05-02T02:38:57.315Z,7.70
2019-05-02T02:41:27.534Z,7.70
2019-05-02T02:44:02.899Z,7.60
2019-05-02T02:46:37.782Z,7.60
2019-05-02T02:49:06.981Z,7.50
2019-05-02T02:51:36.962Z,7.50
2019-05-02T02:54:07.601Z,7.40
2019-05-02T02:56:40.774Z,7.30
2019-05-02T02:59:09.357Z,7.30
2019-05-02T03:01:39.287Z,7.20
2019-05-02T03:04:12.087Z,7.20
2019-05-02T03:06:44.798Z,7.10
2019-05-02T03:09:13.203Z,7.20
2019-05-02T03:12:02.213Z,7.10
2019-05-02T03:14:34.503Z,7.10
2019-05-02T03:17:04.718Z,7.00
2019-05-02T03:19:34.812Z,7.00
2019-05-02T03:22:04.990Z,6.90
2019-05-02T03:24:36.817Z,6.90
2019-05-02T03:27:06.710Z,6.80
2019-05-02T03:29:43.832Z,6.80
2019-05-02T03:32:16.982Z,6.70
2019-05-02T03:34:53.041Z,6.70
2019-05-02T03:37:13.942Z,6.70
2019-05-02T03:39:49.592Z,6.70
2019-05-02T03:42:15.912Z,6.80
2019-05-02T03:44:54.911Z,6.80
2019-05-02T03:47:18.195Z,6.90
2019-05-02T03:49:51.773Z,7.00
2019-05-02T03:52:20.394Z,7.10
2019-05-02T03:54:52.491Z,7.10
2019-05-02T03:57:32.455Z,7.10
2019-05-02T03:59:54.061Z,7.10
2019-05-02T04:02:25.552Z,7.10
2019-05-02T04:05:00.405Z,7.10
2019-05-02T04:07:39.712Z,7.10
2019-05-02T04:10:02.123Z,7.00
2019-05-02T04:12:37.353Z,7.00
2019-05-02T04:15:11.037Z,7.00
2019-05-02T04:17:41.973Z,7.10
2019-05-02T04:20:12.791Z,7.10
2019-05-02T04:22:49.113Z,7.20
2019-05-02T04:25:15.420Z,7.10
2019-05-02T04:27:46.249Z,7.10
2019-05-02T04:30:16.271Z,7.10
2019-05-02T04:32:49.611Z,7.20
2019-05-02T04:35:18.406Z,7.20
2019-05-02T04:37:48.244Z,7.10
2019-05-02T04:40:20.429Z,7.20
2019-05-02T04:43:02.056Z,7.20
2019-05-02T04:45:29.536Z,7.20
2019-05-02T04:48:00.813Z,7.20
2019-05-02T04:50:29.486Z,7.20
2019-05-02T04:52:59.239Z,7.30
2019-05-02T04:55:33.205Z,7.20
2019-05-02T04:58:01.829Z,7.20
2019-05-02T05:00:32.222Z,7.20
2019-05-02T05:03:07.207Z,7.20
2019-05-02T05:05:34.332Z,7.20
2019-05-02T05:08:04.301Z,7.20
2019-05-02T05:10:40.184Z,7.30
2019-05-02T05:13:07.753Z,7.40
2019-05-02T05:15:46.567Z,7.50
2019-05-02T05:18:14.437Z,7.60
2019-05-02T05:20:45.950Z,7.70
2019-05-02T05:23:18.272Z,7.80
2019-05-02T05:25:50.762Z,7.90
2019-05-02T05:28:20.631Z,8.00
2019-05-02T05:30:52.161Z,8.20
2019-05-02T05:33:22.493Z,8.20
2019-05-02T05:35:52.823Z,8.30
2019-05-02T05:38:27.848Z,8.40
2019-05-02T05:40:54.975Z,8.60
2019-05-02T05:43:24.875Z,8.70
2019-05-02T05:46:06.100Z,8.80
2019-05-02T05:48:27.440Z,8.90
2019-05-02T05:51:00.392Z,9.00
2019-05-02T05:53:30.932Z,9.10
2019-05-02T05:56:02.469Z,9.30
2019-05-02T05:58:34.394Z,9.40
2019-05-02T06:01:09.330Z,9.50
2019-05-02T06:03:41.902Z,9.60
2019-05-02T06:06:10.289Z,9.60
2019-05-02T06:08:40.873Z,9.80
2019-05-02T06:11:14.948Z,9.90
2019-05-02T06:13:48.480Z,10.00
2019-05-02T06:16:16.553Z,10.00
2019-05-02T06:18:46.858Z,10.20
2019-05-02T06:21:17.158Z,10.20
2019-05-02T06:23:47.546Z,10.20
2019-05-02T06:26:17.453Z,10.20
2019-05-02T06:28:47.643Z,10.30
2019-05-02T06:31:17.819Z,10.40
2019-05-02T06:33:48.674Z,10.40
2019-05-02T06:36:19.861Z,10.50
2019-05-02T06:38:52.233Z,10.60
2019-05-02T06:41:22.315Z,10.70
2019-05-02T06:43:52.498Z,10.80
2019-05-02T06:46:27.726Z,11.00
2019-05-02T06:48:54.377Z,11.20
2019-05-02T06:51:24.583Z,11.40
2019-05-02T06:53:54.684Z,11.70
2019-05-02T06:56:24.597Z,11.90
2019-05-02T06:58:54.609Z,12.10
2019-05-02T07:01:25.771Z,12.30
2019-05-02T07:03:56.924Z,12.50
2019-05-02T07:06:26.853Z,12.60
2019-05-02T07:08:59.683Z,12.70
2019-05-02T07:11:33.141Z,12.80
2019-05-02T07:14:12.428Z,12.90
2019-05-02T07:16:54.549Z,13.10
2019-05-02T07:19:27.195Z,13.30
2019-05-02T07:22:03.997Z,13.60
2019-05-02T07:24:32.704Z,13.80
2019-05-02T07:27:03.059Z,13.90
2019-05-02T07:29:33.282Z,13.90
2019-05-02T07:32:03.453Z,14.00
2019-05-02T07:34:33.742Z,14.00
2019-05-02T07:37:08.433Z,14.10
2019-05-02T07:39:36.073Z,14.10
2019-05-02T07:42:08.000Z,14.10
2019-05-02T07:44:38.340Z,14.10
2019-05-02T07:47:08.652Z,14.10
2019-05-02T07:49:38.939Z,14.10
2019-05-02T07:52:08.884Z,14.20
2019-05-02T07:54:39.094Z,14.20
2019-05-02T07:57:09.181Z,14.40
2019-05-02T07:59:39.432Z,14.50
2019-05-02T08:02:09.679Z,14.70
2019-05-02T08:04:43.599Z,14.90
2019-05-02T08:07:16.195Z,15.00
2019-05-02T08:09:47.420Z,15.20
2019-05-02T08:12:17.755Z,15.30
2019-05-02T08:14:47.930Z,15.50
2019-05-02T08:17:19.276Z,15.60
2019-05-02T08:19:49.540Z,15.60
2019-05-02T08:22:19.449Z,15.60
2019-05-02T08:24:49.560Z,15.70
2019-05-02T08:27:23.036Z,15.60
2019-05-02T08:29:53.653Z,15.60
2019-05-02T08:32:23.814Z,15.60
2019-05-02T08:34:54.884Z,15.70
2019-05-02T08:37:25.038Z,15.80
2019-05-02T08:39:54.912Z,16.00
2019-05-02T08:42:27.668Z,16.20
2019-05-02T08:45:00.984Z,16.30
2019-05-02T08:47:30.496Z,16.40
2019-05-02T08:50:00.991Z,16.60
2019-05-02T08:52:31.327Z,16.80
2019-05-02T08:55:04.473Z,17.10
2019-05-02T08:57:34.653Z,17.40
2019-05-02T09:00:07.055Z,17.60
2019-05-02T09:02:41.492Z,17.80
2019-05-02T09:05:10.193Z,17.90
2019-05-02T09:07:42.950Z,17.90
2019-05-02T09:10:13.596Z,17.90
2019-05-02T09:12:45.558Z,18.00
2019-05-02T09:15:16.962Z,18.10
2019-05-02T09:17:52.730Z,18.10
2019-05-02T09:20:20.766Z,18.20
2019-05-02T09:22:52.085Z,18.40
2019-05-02T09:25:22.287Z,18.60
2019-05-02T09:27:53.153Z,18.90
2019-05-02T09:30:25.835Z,18.90
2019-05-02T09:32:57.035Z,19.00
2019-05-02T09:35:26.954Z,19.20
2019-05-02T09:37:56.947Z,19.60
2019-05-02T09:40:26.922Z,19.90
2019-05-02T09:43:01.769Z,19.90
2019-05-02T09:45:33.381Z,20.00
2019-05-02T09:48:07.614Z,20.20
2019-05-02T09:50:35.508Z,20.20
2019-05-02T09:53:06.127Z,20.40
2019-05-02T09:55:36.361Z,20.60
2019-05-02T09:58:10.401Z,20.70
2019-05-02T10:00:41.820Z,20.30
2019-05-02T10:03:12.559Z,20.20
2019-05-02T10:05:43.180Z,20.40
2019-05-02T10:08:13.977Z,20.70
2019-05-02T10:10:45.771Z,21.00
2019-05-02T10:13:16.168Z,21.10
2019-05-02T10:15:46.722Z,21.20
2019-05-02T10:18:19.733Z,21.20
2019-05-02T10:20:48.599Z,21.30
2019-05-02T10:23:20.738Z,21.10
2019-05-02T10:25:51.977Z,21.10
2019-05-02T10:28:25.772Z,21.30
2019-05-02T10:30:56.851Z,21.50
2019-05-02T10:33:27.862Z,21.80
2019-05-02T10:35:59.491Z,21.70
2019-05-02T10:38:29.765Z,21.60
2019-05-02T10:41:04.089Z,21.90
2019-05-02T10:43:32.939Z,22.20
2019-05-02T10:46:04.976Z,22.60
2019-05-02T10:48:36.772Z,22.80
2019-05-02T10:51:26.586Z,22.70
2019-05-02T10:53:56.803Z,22.90
2019-05-02T10:56:28.215Z,23.20
2019-05-02T10:58:58.510Z,23.00
2019-05-02T11:01:32.270Z,22.30
2019-05-02T11:04:04.221Z,22.10
2019-05-02T11:06:37.138Z,22.40
2019-05-02T11:09:09.056Z,22.80
2019-05-02T11:11:39.694Z,23.20
2019-05-02T11:14:14.546Z,23.50
2019-05-02T11:16:49.332Z,23.70
2019-05-02T11:19:33.234Z,23.50
2019-05-02T11:22:03.577Z,23.40
2019-05-02T11:24:34.813Z,23.50
2019-05-02T11:27:08.139Z,23.60
2019-05-02T11:29:36.967Z,23.50
2019-05-02T11:32:07.858Z,23.40
2019-05-02T11:34:37.992Z,23.40
2019-05-02T11:37:08.343Z,23.10
2019-05-02T11:39:46.697Z,23.00
2019-05-02T11:42:12.383Z,22.80
2019-05-02T11:44:42.740Z,22.80
2019-05-02T11:47:17.178Z,23.10
2019-05-02T11:49:46.891Z,23.10
2019-05-02T11:52:16.995Z,23.30
2019-05-02T11:54:48.618Z,23.40
2019-05-02T11:57:21.082Z,23.30
2019-05-02T11:59:52.071Z,22.60
2019-05-02T12:02:37.220Z,22.40
2019-05-02T12:05:10.254Z,22.30
2019-05-02T12:07:41.789Z,22.10
2019-05-02T12:10:12.606Z,22.10
2019-05-02T12:12:44.962Z,22.30
2019-05-02T12:15:15.324Z,22.50
2019-05-02T12:17:45.477Z,22.70
2019-05-02T12:20:15.943Z,22.90
2019-05-02T12:22:46.265Z,23.20
2019-05-02T12:25:16.575Z,23.50
2019-05-02T12:27:46.762Z,23.80
2019-05-02T12:30:17.044Z,24.00
2019-05-02T12:32:49.030Z,24.10
2019-05-02T12:35:18.998Z,24.30
2019-05-02T12:37:52.367Z,24.50
2019-05-02T12:40:21.711Z,24.60
2019-05-02T12:42:53.058Z,24.40
2019-05-02T12:45:23.312Z,23.80
2019-05-02T12:47:53.499Z,23.60
2019-05-02T12:50:23.454Z,23.30
2019-05-02T12:52:55.680Z,22.90
2019-05-02T12:55:25.538Z,22.20
2019-05-02T12:57:55.921Z,21.50
2019-05-02T13:00:26.315Z,21.20
2019-05-02T13:02:59.129Z,21.10
2019-05-02T13:05:31.677Z,20.90
2019-05-02T13:08:02.516Z,20.80
2019-05-02T13:10:36.998Z,20.90
2019-05-02T13:13:08.038Z,21.10
2019-05-02T13:15:38.592Z,21.30
2019-05-02T13:18:08.892Z,21.50
2019-05-02T13:20:41.656Z,21.40
2019-05-02T13:23:27.197Z,21.30
2019-05-02T13:25:56.091Z,21.20
2019-05-02T13:28:26.526Z,21.20
2019-05-02T13:31:13.164Z,21.40
2019-05-02T13:34:01.953Z,21.70
2019-05-02T13:36:45.559Z,22.30
2019-05-02T13:39:22.018Z,22.80
2019-05-02T13:41:52.374Z,23.10
2019-05-02T13:44:24.161Z,23.10
2019-05-02T13:46:54.992Z,23.20
2019-05-02T13:49:26.393Z,23.40
2019-05-02T13:51:56.598Z,23.60
2019-05-02T13:54:34.639Z,23.40
2019-05-02T13:57:05.209Z,23.30
2019-05-02T13:59:35.311Z,23.10
2019-05-02T14:02:07.481Z,22.90
2019-05-02T14:04:37.344Z,22.90
2019-05-02T14:07:07.691Z,22.80
2019-05-02T14:09:44.078Z,22.70
2019-05-02T14:12:16.891Z,22.50
2019-05-02T14:14:47.170Z,22.30
2019-05-02T14:17:17.462Z,22.10
2019-05-02T14:19:47.950Z,22.00
2019-05-02T14:22:18.364Z,21.80
2019-05-02T14:24:48.611Z,21.60
2019-05-02T14:27:18.791Z,21.40
2019-05-02T14:29:48.994Z,21.30
2019-05-02T14:32:23.310Z,21.40
2019-05-02T14:34:55.651Z,21.50
2019-05-02T14:37:27.484Z,21.60
2019-05-02T14:39:59.451Z,21.50
2019-05-02T14:42:29.798Z,21.40
2019-05-02T14:45:08.463Z,21.20
2019-05-02T14:47:33.612Z,21.10
2019-05-02T14:50:20.489Z,21.00
2019-05-02T14:52:44.007Z,20.80
2019-05-02T14:55:16.957Z,20.60
2019-05-02T14:57:45.114Z,20.50
2019-05-02T15:00:17.061Z,20.30
2019-05-02T15:02:49.228Z,20.20
2019-05-02T15:05:28.363Z,20.10
2019-05-02T15:07:51.860Z,20.00
2019-05-02T15:10:22.793Z,19.90
2019-05-02T15:12:59.682Z,19.80
2019-05-02T15:15:27.975Z,19.60
2019-05-02T15:17:58.177Z,19.50
2019-05-02T15:20:38.604Z,19.40
2019-05-02T15:23:02.357Z,19.20
2019-05-02T15:25:32.306Z,19.10
2019-05-02T15:28:02.582Z,19.00
2019-05-02T15:30:36.960Z,18.80
2019-05-02T15:33:17.180Z,18.70
2019-05-02T15:35:52.567Z,18.60
2019-05-02T15:38:27.863Z,18.40
2019-05-02T15:40:59.154Z,18.20
2019-05-02T15:43:28.299Z,18.00
2019-05-02T15:45:58.506Z,17.80
2019-05-02T15:48:28.612Z,17.60
2019-05-02T15:51:00.156Z,17.40
2019-05-02T15:53:32.594Z,17.40
2019-05-02T15:56:02.935Z,17.30
2019-05-02T15:58:33.165Z,17.40
2019-05-02T16:01:18.128Z,17.40
2019-05-02T16:03:53.508Z,17.30
2019-05-02T16:06:30.502Z,17.30
2019-05-02T16:08:55.574Z,17.30
2019-05-02T16:11:25.505Z,17.20
2019-05-02T16:13:56.318Z,17.20
2019-05-02T16:16:27.858Z,17.10
2019-05-02T16:18:58.235Z,17.00
2019-05-02T16:21:32.717Z,17.00
2019-05-02T16:24:22.866Z,16.90
2019-05-02T16:26:57.107Z,16.90
2019-05-02T16:29:28.779Z,16.90
2019-05-02T16:32:10.192Z,16.90
2019-05-02T16:34:54.846Z,16.70
2019-05-02T16:37:25.619Z,16.50
2019-05-02T16:39:56.332Z,16.30
2019-05-02T16:42:26.471Z,16.10
2019-05-02T16:44:57.001Z,16.00
2019-05-02T16:47:27.448Z,15.90
2019-05-02T16:49:57.832Z,15.90
2019-05-02T16:52:32.686Z,15.90
2019-05-02T16:55:03.516Z,15.80
2019-05-02T16:57:36.937Z,15.70
2019-05-02T17:00:13.488Z,15.60
2019-05-02T17:02:46.363Z,15.60
2019-05-02T17:05:18.306Z,15.60
2019-05-02T17:07:50.316Z,15.50
2019-05-02T17:10:24.943Z,15.40
2019-05-02T17:12:57.652Z,15.30
2019-05-02T17:15:31.173Z,15.30
2019-05-02T17:18:04.980Z,15.30
2019-05-02T17:20:33.242Z,15.20
2019-05-02T17:23:07.547Z,15.10
2019-05-02T17:25:36.833Z,15.10
2019-05-02T17:28:10.582Z,15.00
2019-05-02T17:30:40.734Z,14.90
2019-05-02T17:33:14.325Z,14.80
2019-05-02T17:35:49.444Z,14.80
2019-05-02T17:38:19.219Z,14.70
2019-05-02T17:40:47.011Z,14.60
2019-05-02T17:43:18.107Z,14.60
2019-05-02T17:45:48.685Z,14.50
2019-05-02T17:48:18.936Z,14.40
2019-05-02T17:51:09.077Z,14.30
2019-05-02T17:53:42.753Z,14.30
2019-05-02T17:56:20.308Z,14.20
2019-05-02T17:58:52.865Z,14.10
2019-05-02T18:01:18.010Z,14.10
2019-05-02T18:03:48.402Z,14.00
2019-05-02T18:06:30.748Z,13.90
2019-05-02T18:08:55.016Z,13.90
2019-05-02T18:11:22.737Z,13.80
2019-05-02T18:13:53.745Z,13.80
2019-05-02T18:16:24.951Z,13.70
2019-05-02T18:18:55.472Z,13.70
2019-05-02T18:21:28.649Z,13.70
2019-05-02T18:24:04.438Z,13.70
2019-05-02T18:26:31.832Z,13.60
2019-05-02T18:29:06.681Z,13.60
2019-05-02T18:31:47.165Z,13.60
2019-05-02T18:34:14.311Z,13.60
2019-05-02T18:36:43.674Z,13.50
2019-05-02T18:39:14.167Z,13.50
2019-05-02T18:41:46.387Z,13.40
2019-05-02T18:44:18.685Z,13.40
2019-05-02T18:46:48.299Z,13.40
2019-05-02T18:49:21.936Z,13.40
2019-05-02T18:51:53.926Z,13.30
2019-05-02T18:54:22.206Z,13.30
2019-05-02T18:56:55.357Z,13.20
2019-05-02T18:59:27.051Z,13.20
2019-05-02T19:01:59.362Z,13.20
2019-05-02T19:04:34.888Z,13.10
2019-05-02T19:07:00.366Z,13.10
2019-05-02T19:09:33.125Z,13.00
2019-05-02T19:12:05.913Z,13.00
2019-05-02T19:14:34.614Z,12.90
2019-05-02T19:17:07.262Z,12.90
2019-05-02T19:19:37.829Z,12.90
2019-05-02T19:22:13.220Z,12.80
2019-05-02T19:24:41.571Z,12.70
2019-05-02T19:27:13.349Z,12.70
2019-05-02T19:29:48.152Z,12.70
2019-05-02T19:32:17.051Z,12.60
2019-05-02T19:34:47.827Z,12.60
2019-05-02T19:37:18.711Z,12.60
2019-05-02T19:39:49.360Z,12.60
2019-05-02T19:42:22.539Z,12.60
2019-05-02T19:44:52.785Z,12.60
2019-05-02T19:47:22.926Z,12.60
2019-05-02T19:49:54.396Z,12.50
2019-05-02T19:52:28.568Z,12.50
2019-05-02T19:54:58.941Z,12.50
2019-05-02T19:57:28.766Z,12.50
2019-05-02T20:00:02.731Z,12.40
2019-05-02T20:02:37.377Z,12.30
2019-05-02T20:05:06.458Z,12.30
2019-05-02T20:07:56.199Z,12.30
2019-05-02T20:10:31.604Z,12.30
2019-05-02T20:13:28.276Z,12.30
2019-05-02T20:15:57.045Z,12.20
2019-05-02T20:18:47.653Z,12.20
2019-05-02T20:21:27.595Z,12.20
2019-05-02T20:24:01.365Z,12.20
2019-05-02T20:26:32.548Z,12.30
2019-05-02T20:29:02.994Z,12.30
2019-05-02T20:31:33.360Z,12.20
2019-05-02T20:34:04.149Z,12.20
2019-05-02T20:36:34.581Z,12.20
2019-05-02T20:39:08.042Z,12.20
2019-05-02T20:41:38.575Z,12.20
2019-05-02T20:44:08.873Z,12.10
2019-05-02T20:46:39.141Z,12.10
2019-05-02T20:49:09.310Z,12.00
2019-05-02T20:51:39.440Z,12.00
2019-05-02T20:54:09.804Z,12.00
2019-05-02T20:56:40.099Z,11.90
2019-05-02T20:59:12.548Z,11.90
2019-05-02T21:01:43.000Z,11.90
2019-05-02T21:04:13.289Z,11.90
2019-05-02T21:06:52.660Z,11.90
2019-05-02T21:09:27.615Z,11.90
2019-05-02T21:12:02.249Z,11.80
2019-05-02T21:14:32.616Z,11.80
2019-05-02T21:17:02.986Z,11.80
2019-05-02T21:19:38.335Z,11.80
2019-05-02T21:22:17.550Z,11.80
2019-05-02T21:24:47.953Z,11.80
2019-05-02T21:27:18.363Z,11.80
2019-05-02T21:29:48.346Z,11.80
2019-05-02T21:32:18.725Z,11.80
2019-05-02T21:34:49.096Z,11.80
2019-05-02T21:37:19.213Z,11.70
2019-05-02T21:39:49.101Z,11.70
2019-05-02T21:42:19.310Z,11.70
2019-05-02T21:44:51.773Z,11.70
2019-05-02T21:47:22.617Z,11.70
2019-05-02T21:50:03.572Z,11.70
2019-05-02T21:52:35.551Z,11.70
2019-05-02T21:55:17.605Z,11.70
2019-05-02T21:57:47.732Z,11.70
2019-05-02T22:00:28.340Z,11.70
2019-05-02T22:03:01.913Z,11.70
2019-05-02T22:05:32.196Z,11.70
2019-05-02T22:08:02.957Z,11.70
2019-05-02T22:10:33.263Z,11.70
2019-05-02T22:13:03.611Z,11.70
2019-05-02T22:15:34.682Z,11.60
2019-05-02T22:18:04.773Z,11.60
2019-05-02T22:20:34.754Z,11.60
2019-05-02T22:23:04.975Z,11.60
2019-05-02T22:25:35.007Z,11.70
2019-05-02T22:28:05.332Z,11.60
2019-05-02T22:30:35.297Z,11.70
2019-05-02T22:33:05.572Z,11.70
2019-05-02T22:35:35.860Z,11.60
2019-05-02T22:38:07.720Z,11.70
2019-05-02T22:40:37.836Z,11.70
2019-05-02T22:43:08.120Z,11.70
2019-05-02T22:45:38.260Z,11.60
2019-05-02T22:48:08.550Z,11.50
2019-05-02T22:50:38.723Z,11.50
2019-05-02T22:53:08.922Z,11.50
2019-05-02T22:55:39.129Z,11.50
2019-05-02T22:58:09.057Z,11.50
2019-05-02T23:00:39.371Z,11.50
2019-05-02T23:03:09.591Z,11.50
2019-05-02T23:05:42.008Z,11.50
2019-05-02T23:08:12.596Z,11.50
2019-05-02T23:11:03.526Z,11.50
2019-05-02T23:13:33.906Z,11.50
2019-05-02T23:16:04.130Z,11.50
2019-05-02T23:18:34.332Z,11.50
2019-05-02T23:21:04.787Z,11.50
2019-05-02T23:23:34.728Z,11.50
2019-05-02T23:26:09.654Z,11.50
2019-05-02T23:28:51.721Z,11.50
2019-05-02T23:31:22.563Z,11.50
2019-05-02T23:33:58.296Z,11.40
2019-05-02T23:36:29.707Z,11.40
2019-05-02T23:39:01.864Z,11.40
2019-05-02T23:41:33.799Z,11.40
2019-05-02T23:44:03.802Z,11.40
2019-05-02T23:46:34.027Z,11.40
2019-05-02T23:49:04.363Z,11.40
2019-05-02T23:51:34.540Z,11.40
2019-05-02T23:54:04.894Z,11.40
2019-05-02T23:56:35.062Z,11.40
2019-05-02T23:59:05.474Z,11.40
